sensor_id;sensor_type;location;lat;lon;timestamp;temperature;humidity
76211;DHT22;65003;49.518;11.280;2022-12-18T00:00:43;-7.50;78.80
76211;DHT22;65003;49.518;11.280;2022-12-18T00:03:09;-7.40;78.50
76211;DHT22;65003;49.518;11.280;2022-12-18T00:05:36;-7.40;78.40
76211;DHT22;65003;49.518;11.280;2022-12-18T00:08:03;-7.40;78.40
76211;DHT22;65003;49.518;11.280;2022-12-18T00:10:29;-7.30;78.30
76211;DHT22;65003;49.518;11.280;2022-12-18T00:12:58;-7.40;78.40
76211;DHT22;65003;49.518;11.280;2022-12-18T00:15:24;-7.30;78.60
76211;DHT22;65003;49.518;11.280;2022-12-18T00:17:51;-7.20;78.50
76211;DHT22;65003;49.518;11.280;2022-12-18T00:20:17;-7.20;78.40
76211;DHT22;65003;49.518;11.280;2022-12-18T00:22:44;-7.20;78.20
76211;DHT22;65003;49.518;11.280;2022-12-18T00:25:10;-7.30;78.90
76211;DHT22;65003;49.518;11.280;2022-12-18T00:27:37;-7.40;80.30
76211;DHT22;65003;49.518;11.280;2022-12-18T00:30:05;-7.50;79.80
76211;DHT22;65003;49.518;11.280;2022-12-18T00:32:32;-7.70;80.30
76211;DHT22;65003;49.518;11.280;2022-12-18T00:34:58;-7.70;80.70
76211;DHT22;65003;49.518;11.280;2022-12-18T00:37:26;-7.90;81.10
76211;DHT22;65003;49.518;11.280;2022-12-18T00:39:52;-8.00;81.70
76211;DHT22;65003;49.518;11.280;2022-12-18T00:42:19;-8.00;82.10
76211;DHT22;65003;49.518;11.280;2022-12-18T00:44:51;-8.00;81.80
76211;DHT22;65003;49.518;11.280;2022-12-18T00:47:18;-8.00;81.50
76211;DHT22;65003;49.518;11.280;2022-12-18T00:49:44;-7.80;80.70
76211;DHT22;65003;49.518;11.280;2022-12-18T00:52:11;-7.70;79.80
76211;DHT22;65003;49.518;11.280;2022-12-18T00:54:38;-7.70;79.70
76211;DHT22;65003;49.518;11.280;2022-12-18T00:57:04;-7.80;80.00
76211;DHT22;65003;49.518;11.280;2022-12-18T00:59:31;-8.00;80.50
76211;DHT22;65003;49.518;11.280;2022-12-18T01:01:57;-8.10;81.90
76211;DHT22;65003;49.518;11.280;2022-12-18T01:04:24;-8.10;81.40
76211;DHT22;65003;49.518;11.280;2022-12-18T01:06:51;-8.00;81.20
76211;DHT22;65003;49.518;11.280;2022-12-18T01:09:19;-7.90;80.50
76211;DHT22;65003;49.518;11.280;2022-12-18T01:11:46;-7.90;80.20
76211;DHT22;65003;49.518;11.280;2022-12-18T01:14:12;-7.70;79.60
76211;DHT22;65003;49.518;11.280;2022-12-18T01:16:39;-7.80;79.40
76211;DHT22;65003;49.518;11.280;2022-12-18T01:19:05;-7.80;79.50
76211;DHT22;65003;49.518;11.280;2022-12-18T01:21:32;-7.70;79.00
76211;DHT22;65003;49.518;11.280;2022-12-18T01:23:59;-7.60;78.60
76211;DHT22;65003;49.518;11.280;2022-12-18T01:26:25;-7.40;78.80
76211;DHT22;65003;49.518;11.280;2022-12-18T01:28:53;-7.40;78.30
76211;DHT22;65003;49.518;11.280;2022-12-18T01:31:20;-7.40;78.40
76211;DHT22;65003;49.518;11.280;2022-12-18T01:33:45;-7.50;79.50
76211;DHT22;65003;49.518;11.280;2022-12-18T01:36:18;-7.60;81.20
76211;DHT22;65003;49.518;11.280;2022-12-18T01:38:44;-7.60;81.90
76211;DHT22;65003;49.518;11.280;2022-12-18T01:41:10;-7.60;82.10
76211;DHT22;65003;49.518;11.280;2022-12-18T01:43:47;-7.60;82.00
76211;DHT22;65003;49.518;11.280;2022-12-18T01:46:13;-7.60;82.40
76211;DHT22;65003;49.518;11.280;2022-12-18T01:48:40;-7.60;82.60
76211;DHT22;65003;49.518;11.280;2022-12-18T01:51:07;-7.70;83.20
76211;DHT22;65003;49.518;11.280;2022-12-18T01:53:33;-7.90;84.00
76211;DHT22;65003;49.518;11.280;2022-12-18T01:55:59;-7.90;84.30
76211;DHT22;65003;49.518;11.280;2022-12-18T01:58:39;-7.90;84.70
76211;DHT22;65003;49.518;11.280;2022-12-18T02:01:03;-8.00;85.20
76211;DHT22;65003;49.518;11.280;2022-12-18T02:03:30;-8.00;86.00
76211;DHT22;65003;49.518;11.280;2022-12-18T02:06:00;-8.00;86.60
76211;DHT22;65003;49.518;11.280;2022-12-18T02:08:26;-8.10;86.90
76211;DHT22;65003;49.518;11.280;2022-12-18T02:13:32;-8.00;87.20
76211;DHT22;65003;49.518;11.280;2022-12-18T02:16:01;-8.00;87.40
76211;DHT22;65003;49.518;11.280;2022-12-18T02:18:28;-8.00;87.70
76211;DHT22;65003;49.518;11.280;2022-12-18T02:21:00;-7.90;87.90
76211;DHT22;65003;49.518;11.280;2022-12-18T02:23:31;-7.90;88.00
76211;DHT22;65003;49.518;11.280;2022-12-18T02:26:02;-8.00;88.80
76211;DHT22;65003;49.518;11.280;2022-12-18T02:28:28;-7.90;88.60
76211;DHT22;65003;49.518;11.280;2022-12-18T02:30:54;-7.90;88.70
76211;DHT22;65003;49.518;11.280;2022-12-18T02:33:20;-7.90;89.00
76211;DHT22;65003;49.518;11.280;2022-12-18T02:35:47;-7.90;89.40
76211;DHT22;65003;49.518;11.280;2022-12-18T02:38:13;-7.80;89.60
76211;DHT22;65003;49.518;11.280;2022-12-18T02:40:40;-7.70;89.40
76211;DHT22;65003;49.518;11.280;2022-12-18T02:43:10;-7.70;89.60
76211;DHT22;65003;49.518;11.280;2022-12-18T02:45:35;-7.60;90.00
76211;DHT22;65003;49.518;11.280;2022-12-18T02:48:01;-7.50;89.40
76211;DHT22;65003;49.518;11.280;2022-12-18T02:50:35;-7.40;88.80
76211;DHT22;65003;49.518;11.280;2022-12-18T02:53:11;-7.30;88.80
76211;DHT22;65003;49.518;11.280;2022-12-18T02:58:16;-7.40;89.30
76211;DHT22;65003;49.518;11.280;2022-12-18T03:00:47;-7.30;89.10
76211;DHT22;65003;49.518;11.280;2022-12-18T03:03:11;-7.30;88.90
76211;DHT22;65003;49.518;11.280;2022-12-18T03:05:38;-7.20;89.00
76211;DHT22;65003;49.518;11.280;2022-12-18T03:08:04;-7.10;88.80
76211;DHT22;65003;49.518;11.280;2022-12-18T03:10:31;-7.10;88.50
76211;DHT22;65003;49.518;11.280;2022-12-18T03:13:02;-7.00;88.30
76211;DHT22;65003;49.518;11.280;2022-12-18T03:15:31;-7.10;88.50
76211;DHT22;65003;49.518;11.280;2022-12-18T03:18:01;-7.00;88.50
76211;DHT22;65003;49.518;11.280;2022-12-18T03:20:25;-7.00;87.90
76211;DHT22;65003;49.518;11.280;2022-12-18T03:22:53;-6.90;87.70
76211;DHT22;65003;49.518;11.280;2022-12-18T03:25:19;-6.90;87.60
76211;DHT22;65003;49.518;11.280;2022-12-18T03:27:47;-6.80;87.20
76211;DHT22;65003;49.518;11.280;2022-12-18T03:30:13;-6.70;86.80
76211;DHT22;65003;49.518;11.280;2022-12-18T03:32:48;-6.60;87.10
76211;DHT22;65003;49.518;11.280;2022-12-18T03:35:14;-6.50;85.70
76211;DHT22;65003;49.518;11.280;2022-12-18T03:37:40;-6.50;85.40
76211;DHT22;65003;49.518;11.280;2022-12-18T03:40:07;-6.50;85.00
76211;DHT22;65003;49.518;11.280;2022-12-18T03:42:48;-6.50;85.00
76211;DHT22;65003;49.518;11.280;2022-12-18T03:45:18;-6.50;85.00
76211;DHT22;65003;49.518;11.280;2022-12-18T03:50:48;-6.50;84.60
76211;DHT22;65003;49.518;11.280;2022-12-18T03:55:48;-6.40;83.50
76211;DHT22;65003;49.518;11.280;2022-12-18T03:58:17;-6.40;83.30
76211;DHT22;65003;49.518;11.280;2022-12-18T04:00:42;-6.40;83.20
76211;DHT22;65003;49.518;11.280;2022-12-18T04:03:09;-6.40;83.00
76211;DHT22;65003;49.518;11.280;2022-12-18T04:05:36;-6.30;82.50
76211;DHT22;65003;49.518;11.280;2022-12-18T04:08:02;-6.30;81.90
76211;DHT22;65003;49.518;11.280;2022-12-18T04:10:29;-6.30;81.40
76211;DHT22;65003;49.518;11.280;2022-12-18T04:12:56;-6.20;81.00
76211;DHT22;65003;49.518;11.280;2022-12-18T04:15:22;-6.20;80.80
76211;DHT22;65003;49.518;11.280;2022-12-18T04:17:49;-6.20;80.20
76211;DHT22;65003;49.518;11.280;2022-12-18T04:20:16;-6.50;79.40
76211;DHT22;65003;49.518;11.280;2022-12-18T04:22:42;-6.10;79.70
76211;DHT22;65003;49.518;11.280;2022-12-18T04:25:11;-6.10;79.70
76211;DHT22;65003;49.518;11.280;2022-12-18T04:27:38;-6.00;79.40
76211;DHT22;65003;49.518;11.280;2022-12-18T04:30:06;-5.90;79.70
76211;DHT22;65003;49.518;11.280;2022-12-18T04:32:33;-5.80;79.40
76211;DHT22;65003;49.518;11.280;2022-12-18T04:34:59;-5.70;79.00
76211;DHT22;65003;49.518;11.280;2022-12-18T04:37:26;-5.70;78.70
76211;DHT22;65003;49.518;11.280;2022-12-18T04:39:52;-5.70;78.60
76211;DHT22;65003;49.518;11.280;2022-12-18T04:42:19;-5.80;79.10
76211;DHT22;65003;49.518;11.280;2022-12-18T04:44:45;-5.80;79.40
76211;DHT22;65003;49.518;11.280;2022-12-18T04:47:12;-5.80;79.40
76211;DHT22;65003;49.518;11.280;2022-12-18T04:49:38;-5.80;79.70
76211;DHT22;65003;49.518;11.280;2022-12-18T04:52:05;-5.90;80.00
76211;DHT22;65003;49.518;11.280;2022-12-18T04:54:32;-6.00;80.60
76211;DHT22;65003;49.518;11.280;2022-12-18T04:56:59;-6.00;80.70
76211;DHT22;65003;49.518;11.280;2022-12-18T04:59:26;-5.90;80.70
76211;DHT22;65003;49.518;11.280;2022-12-18T05:01:52;-5.90;80.80
76211;DHT22;65003;49.518;11.280;2022-12-18T05:04:19;-5.90;80.60
76211;DHT22;65003;49.518;11.280;2022-12-18T05:06:45;-5.90;80.70
76211;DHT22;65003;49.518;11.280;2022-12-18T05:09:12;-5.90;80.60
76211;DHT22;65003;49.518;11.280;2022-12-18T05:11:39;-5.80;80.70
76211;DHT22;65003;49.518;11.280;2022-12-18T05:14:05;-5.80;80.40
76211;DHT22;65003;49.518;11.280;2022-12-18T05:16:32;-5.80;80.60
76211;DHT22;65003;49.518;11.280;2022-12-18T05:18:58;-5.60;80.40
76211;DHT22;65003;49.518;11.280;2022-12-18T05:21:25;-5.50;79.80
76211;DHT22;65003;49.518;11.280;2022-12-18T05:23:52;-5.50;79.70
76211;DHT22;65003;49.518;11.280;2022-12-18T05:26:18;-5.60;80.10
76211;DHT22;65003;49.518;11.280;2022-12-18T05:28:45;-5.70;80.80
76211;DHT22;65003;49.518;11.280;2022-12-18T05:31:12;-5.80;81.30
76211;DHT22;65003;49.518;11.280;2022-12-18T05:33:38;-5.90;82.00
76211;DHT22;65003;49.518;11.280;2022-12-18T05:36:06;-5.90;82.30
76211;DHT22;65003;49.518;11.280;2022-12-18T05:38:33;-5.80;82.10
76211;DHT22;65003;49.518;11.280;2022-12-18T05:40:59;-5.80;82.80
76211;DHT22;65003;49.518;11.280;2022-12-18T05:43:25;-5.80;82.20
76211;DHT22;65003;49.518;11.280;2022-12-18T05:45:52;-5.90;82.20
76211;DHT22;65003;49.518;11.280;2022-12-18T05:48:18;-5.90;82.40
76211;DHT22;65003;49.518;11.280;2022-12-18T05:50:46;-5.80;81.60
76211;DHT22;65003;49.518;11.280;2022-12-18T05:53:12;-5.70;81.30
76211;DHT22;65003;49.518;11.280;2022-12-18T05:55:39;-5.70;81.10
76211;DHT22;65003;49.518;11.280;2022-12-18T05:58:05;-5.70;80.50
76211;DHT22;65003;49.518;11.280;2022-12-18T06:00:32;-5.70;80.50
76211;DHT22;65003;49.518;11.280;2022-12-18T06:02:58;-5.70;81.00
76211;DHT22;65003;49.518;11.280;2022-12-18T06:05:25;-5.70;80.20
76211;DHT22;65003;49.518;11.280;2022-12-18T06:07:51;-5.70;80.00
76211;DHT22;65003;49.518;11.280;2022-12-18T06:10:18;-5.60;80.10
76211;DHT22;65003;49.518;11.280;2022-12-18T06:12:45;-5.70;80.30
76211;DHT22;65003;49.518;11.280;2022-12-18T06:15:12;-5.70;80.70
76211;DHT22;65003;49.518;11.280;2022-12-18T06:17:38;-5.70;80.90
76211;DHT22;65003;49.518;11.280;2022-12-18T06:20:05;-5.60;81.40
76211;DHT22;65003;49.518;11.280;2022-12-18T06:22:32;-5.60;80.90
76211;DHT22;65003;49.518;11.280;2022-12-18T06:24:59;-5.50;81.30
76211;DHT22;65003;49.518;11.280;2022-12-18T06:27:25;-5.50;81.60
76211;DHT22;65003;49.518;11.280;2022-12-18T06:29:52;-5.40;82.00
76211;DHT22;65003;49.518;11.280;2022-12-18T06:32:18;-5.40;81.90
76211;DHT22;65003;49.518;11.280;2022-12-18T06:34:45;-5.20;81.70
76211;DHT22;65003;49.518;11.280;2022-12-18T06:37:11;-5.10;81.20
76211;DHT22;65003;49.518;11.280;2022-12-18T06:39:38;-5.00;81.40
76211;DHT22;65003;49.518;11.280;2022-12-18T06:42:05;-4.90;80.50
76211;DHT22;65003;49.518;11.280;2022-12-18T06:44:32;-4.90;81.40
76211;DHT22;65003;49.518;11.280;2022-12-18T06:46:58;-4.90;80.80
76211;DHT22;65003;49.518;11.280;2022-12-18T06:49:25;-4.90;80.90
76211;DHT22;65003;49.518;11.280;2022-12-18T06:51:51;-4.80;80.90
76211;DHT22;65003;49.518;11.280;2022-12-18T06:54:18;-4.80;80.90
76211;DHT22;65003;49.518;11.280;2022-12-18T06:56:45;-4.80;80.80
76211;DHT22;65003;49.518;11.280;2022-12-18T06:59:12;-4.70;80.90
76211;DHT22;65003;49.518;11.280;2022-12-18T07:01:38;-4.70;80.70
76211;DHT22;65003;49.518;11.280;2022-12-18T07:04:04;-4.70;80.70
76211;DHT22;65003;49.518;11.280;2022-12-18T07:06:31;-4.80;81.60
76211;DHT22;65003;49.518;11.280;2022-12-18T07:08:58;-4.80;81.90
76211;DHT22;65003;49.518;11.280;2022-12-18T07:11:26;-4.80;82.10
76211;DHT22;65003;49.518;11.280;2022-12-18T07:13:52;-4.70;82.40
76211;DHT22;65003;49.518;11.280;2022-12-18T07:16:19;-4.60;82.00
76211;DHT22;65003;49.518;11.280;2022-12-18T07:18:45;-4.60;82.30
76211;DHT22;65003;49.518;11.280;2022-12-18T07:21:13;-4.40;82.00
76211;DHT22;65003;49.518;11.280;2022-12-18T07:23:39;-4.40;81.80
76211;DHT22;65003;49.518;11.280;2022-12-18T07:26:10;-4.50;82.20
76211;DHT22;65003;49.518;11.280;2022-12-18T07:28:36;-4.50;82.40
76211;DHT22;65003;49.518;11.280;2022-12-18T07:31:06;-4.40;82.00
76211;DHT22;65003;49.518;11.280;2022-12-18T07:33:33;-4.20;81.60
76211;DHT22;65003;49.518;11.280;2022-12-18T07:36:00;-4.20;81.20
76211;DHT22;65003;49.518;11.280;2022-12-18T07:38:28;-4.10;80.80
76211;DHT22;65003;49.518;11.280;2022-12-18T07:41:00;-4.00;80.50
76211;DHT22;65003;49.518;11.280;2022-12-18T07:43:22;-4.00;80.70
76211;DHT22;65003;49.518;11.280;2022-12-18T07:45:49;-4.00;80.80
76211;DHT22;65003;49.518;11.280;2022-12-18T07:48:15;-4.00;80.80
76211;DHT22;65003;49.518;11.280;2022-12-18T07:50:41;-3.90;80.90
76211;DHT22;65003;49.518;11.280;2022-12-18T07:53:08;-3.90;80.50
76211;DHT22;65003;49.518;11.280;2022-12-18T07:55:35;-3.80;80.30
76211;DHT22;65003;49.518;11.280;2022-12-18T07:58:02;-3.80;80.40
76211;DHT22;65003;49.518;11.280;2022-12-18T08:00:28;-3.70;80.50
76211;DHT22;65003;49.518;11.280;2022-12-18T08:02:55;-3.60;80.20
76211;DHT22;65003;49.518;11.280;2022-12-18T08:05:21;-3.50;80.00
76211;DHT22;65003;49.518;11.280;2022-12-18T08:07:48;-3.50;80.00
76211;DHT22;65003;49.518;11.280;2022-12-18T08:10:15;-3.50;80.10
76211;DHT22;65003;49.518;11.280;2022-12-18T08:12:42;-3.40;79.80
76211;DHT22;65003;49.518;11.280;2022-12-18T08:15:09;-3.30;79.70
76211;DHT22;65003;49.518;11.280;2022-12-18T08:17:35;-3.20;79.60
76211;DHT22;65003;49.518;11.280;2022-12-18T08:20:03;-3.10;79.70
76211;DHT22;65003;49.518;11.280;2022-12-18T08:22:30;-3.00;79.20
76211;DHT22;65003;49.518;11.280;2022-12-18T08:24:57;-2.80;78.80
76211;DHT22;65003;49.518;11.280;2022-12-18T08:27:23;-2.60;78.00
76211;DHT22;65003;49.518;11.280;2022-12-18T08:29:50;-2.40;77.50
76211;DHT22;65003;49.518;11.280;2022-12-18T08:32:17;-2.30;76.70
76211;DHT22;65003;49.518;11.280;2022-12-18T08:34:43;-2.20;76.70
76211;DHT22;65003;49.518;11.280;2022-12-18T08:37:10;-2.00;76.20
76211;DHT22;65003;49.518;11.280;2022-12-18T08:39:36;-1.90;75.80
76211;DHT22;65003;49.518;11.280;2022-12-18T08:42:03;-1.80;75.90
76211;DHT22;65003;49.518;11.280;2022-12-18T08:44:35;-1.70;75.70
76211;DHT22;65003;49.518;11.280;2022-12-18T08:47:05;-1.80;75.80
76211;DHT22;65003;49.518;11.280;2022-12-18T08:49:31;-2.00;77.00
76211;DHT22;65003;49.518;11.280;2022-12-18T08:51:58;-2.10;77.10
76211;DHT22;65003;49.518;11.280;2022-12-18T08:54:26;-2.00;77.60
76211;DHT22;65003;49.518;11.280;2022-12-18T08:56:52;-2.00;77.50
76211;DHT22;65003;49.518;11.280;2022-12-18T08:59:19;-1.70;76.20
76211;DHT22;65003;49.518;11.280;2022-12-18T09:01:46;-1.80;76.50
76211;DHT22;65003;49.518;11.280;2022-12-18T09:04:12;-1.60;76.10
76211;DHT22;65003;49.518;11.280;2022-12-18T09:06:39;-1.50;76.10
76211;DHT22;65003;49.518;11.280;2022-12-18T09:09:06;-1.40;75.50
76211;DHT22;65003;49.518;11.280;2022-12-18T09:11:32;-1.20;75.20
76211;DHT22;65003;49.518;11.280;2022-12-18T09:13:59;-1.20;75.40
76211;DHT22;65003;49.518;11.280;2022-12-18T09:16:26;-1.20;74.70
76211;DHT22;65003;49.518;11.280;2022-12-18T09:18:52;-1.20;74.40
76211;DHT22;65003;49.518;11.280;2022-12-18T09:21:20;-1.40;75.00
76211;DHT22;65003;49.518;11.280;2022-12-18T09:23:49;-1.30;75.30
76211;DHT22;65003;49.518;11.280;2022-12-18T09:26:16;-1.30;75.20
76211;DHT22;65003;49.518;11.280;2022-12-18T09:28:43;-1.40;75.80
76211;DHT22;65003;49.518;11.280;2022-12-18T09:31:10;-1.30;75.40
76211;DHT22;65003;49.518;11.280;2022-12-18T09:33:36;-1.30;75.70
76211;DHT22;65003;49.518;11.280;2022-12-18T09:36:04;-1.40;75.50
76211;DHT22;65003;49.518;11.280;2022-12-18T09:38:31;-1.40;75.80
76211;DHT22;65003;49.518;11.280;2022-12-18T09:41:47;-1.30;75.90
76211;DHT22;65003;49.518;11.280;2022-12-18T09:43:58;-0.70;75.20
76211;DHT22;65003;49.518;11.280;2022-12-18T09:46:26;0.00;71.60
76211;DHT22;65003;49.518;11.280;2022-12-18T09:48:51;0.40;71.80
76211;DHT22;65003;49.518;11.280;2022-12-18T09:51:20;0.60;69.30
76211;DHT22;65003;49.518;11.280;2022-12-18T09:53:46;0.90;68.60
76211;DHT22;65003;49.518;11.280;2022-12-18T09:56:15;1.10;67.70
76211;DHT22;65003;49.518;11.280;2022-12-18T09:58:41;1.60;66.20
76211;DHT22;65003;49.518;11.280;2022-12-18T10:01:11;2.00;64.40
76211;DHT22;65003;49.518;11.280;2022-12-18T10:03:38;2.60;62.60
76211;DHT22;65003;49.518;11.280;2022-12-18T10:06:24;2.90;60.90
76211;DHT22;65003;49.518;11.280;2022-12-18T10:09:06;3.00;60.50
76211;DHT22;65003;49.518;11.280;2022-12-18T10:11:51;3.20;59.90
76211;DHT22;65003;49.518;11.280;2022-12-18T10:17:28;2.90;61.60
76211;DHT22;65003;49.518;11.280;2022-12-18T10:19:41;3.40;60.80
76211;DHT22;65003;49.518;11.280;2022-12-18T10:22:15;3.60;59.00
76211;DHT22;65003;49.518;11.280;2022-12-18T10:27:27;4.00;58.20
76211;DHT22;65003;49.518;11.280;2022-12-18T10:29:53;4.10;58.10
76211;DHT22;65003;49.518;11.280;2022-12-18T10:32:21;4.30;56.90
76211;DHT22;65003;49.518;11.280;2022-12-18T10:34:48;4.40;56.50
76211;DHT22;65003;49.518;11.280;2022-12-18T10:37:17;4.40;57.00
76211;DHT22;65003;49.518;11.280;2022-12-18T10:39:43;4.20;56.60
76211;DHT22;65003;49.518;11.280;2022-12-18T10:42:11;4.20;57.40
76211;DHT22;65003;49.518;11.280;2022-12-18T10:44:37;4.30;57.40
76211;DHT22;65003;49.518;11.280;2022-12-18T10:47:05;4.20;57.10
76211;DHT22;65003;49.518;11.280;2022-12-18T10:49:32;3.80;57.00
76211;DHT22;65003;49.518;11.280;2022-12-18T10:52:07;3.60;57.40
76211;DHT22;65003;49.518;11.280;2022-12-18T10:54:34;3.60;57.50
76211;DHT22;65003;49.518;11.280;2022-12-18T10:57:33;3.60;57.70
76211;DHT22;65003;49.518;11.280;2022-12-18T11:00:18;3.70;57.70
76211;DHT22;65003;49.518;11.280;2022-12-18T11:02:36;3.90;57.40
76211;DHT22;65003;49.518;11.280;2022-12-18T11:05:03;3.70;57.50
76211;DHT22;65003;49.518;11.280;2022-12-18T11:07:46;3.90;58.10
76211;DHT22;65003;49.518;11.280;2022-12-18T11:10:00;3.30;58.10
76211;DHT22;65003;49.518;11.280;2022-12-18T11:12:26;3.00;58.50
76211;DHT22;65003;49.518;11.280;2022-12-18T11:14:53;3.00;58.90
76211;DHT22;65003;49.518;11.280;2022-12-18T11:17:22;3.10;58.70
76211;DHT22;65003;49.518;11.280;2022-12-18T11:19:53;3.30;58.50
76211;DHT22;65003;49.518;11.280;2022-12-18T11:22:21;3.30;58.10
76211;DHT22;65003;49.518;11.280;2022-12-18T11:24:54;3.20;57.90
76211;DHT22;65003;49.518;11.280;2022-12-18T11:27:19;3.10;57.60
76211;DHT22;65003;49.518;11.280;2022-12-18T11:29:46;2.80;58.10
76211;DHT22;65003;49.518;11.280;2022-12-18T11:32:32;2.90;58.40
76211;DHT22;65003;49.518;11.280;2022-12-18T11:37:41;3.10;58.20
76211;DHT22;65003;49.518;11.280;2022-12-18T11:40:18;2.90;58.70
76211;DHT22;65003;49.518;11.280;2022-12-18T11:42:51;3.00;59.20
76211;DHT22;65003;49.518;11.280;2022-12-18T11:45:20;3.00;58.70
76211;DHT22;65003;49.518;11.280;2022-12-18T11:47:51;3.20;58.30
76211;DHT22;65003;49.518;11.280;2022-12-18T11:50:20;3.00;58.30
76211;DHT22;65003;49.518;11.280;2022-12-18T11:52:45;2.70;58.80
76211;DHT22;65003;49.518;11.280;2022-12-18T11:55:15;2.60;59.60
76211;DHT22;65003;49.518;11.280;2022-12-18T11:57:55;2.70;59.90
76211;DHT22;65003;49.518;11.280;2022-12-18T12:00:20;2.70;59.20
76211;DHT22;65003;49.518;11.280;2022-12-18T12:08:34;2.30;60.10
76211;DHT22;65003;49.518;11.280;2022-12-18T12:11:23;2.10;60.70
76211;DHT22;65003;49.518;11.280;2022-12-18T12:14:40;2.10;61.40
76211;DHT22;65003;49.518;11.280;2022-12-18T12:17:15;1.90;61.50
76211;DHT22;65003;49.518;11.280;2022-12-18T12:19:51;1.60;62.40
76211;DHT22;65003;49.518;11.280;2022-12-18T12:22:38;1.50;63.20
76211;DHT22;65003;49.518;11.280;2022-12-18T12:25:18;1.60;63.20
76211;DHT22;65003;49.518;11.280;2022-12-18T12:30:22;1.40;63.10
76211;DHT22;65003;49.518;11.280;2022-12-18T12:33:15;1.30;63.70
76211;DHT22;65003;49.518;11.280;2022-12-18T12:35:46;1.30;64.00
76211;DHT22;65003;49.518;11.280;2022-12-18T12:38:13;1.30;63.70
76211;DHT22;65003;49.518;11.280;2022-12-18T12:40:48;1.40;63.70
76211;DHT22;65003;49.518;11.280;2022-12-18T12:43:33;1.30;63.70
76211;DHT22;65003;49.518;11.280;2022-12-18T12:46:00;1.40;64.30
76211;DHT22;65003;49.518;11.280;2022-12-18T12:48:37;1.30;63.90
76211;DHT22;65003;49.518;11.280;2022-12-18T12:51:03;1.30;64.40
76211;DHT22;65003;49.518;11.280;2022-12-18T12:53:31;1.40;64.20
76211;DHT22;65003;49.518;11.280;2022-12-18T12:55:56;1.30;64.20
76211;DHT22;65003;49.518;11.280;2022-12-18T12:58:31;1.20;64.40
76211;DHT22;65003;49.518;11.280;2022-12-18T13:00:59;1.20;65.00
76211;DHT22;65003;49.518;11.280;2022-12-18T13:03:41;1.30;65.00
76211;DHT22;65003;49.518;11.280;2022-12-18T13:06:09;1.40;65.40
76211;DHT22;65003;49.518;11.280;2022-12-18T13:08:34;1.50;64.80
76211;DHT22;65003;49.518;11.280;2022-12-18T13:10:59;1.40;64.50
76211;DHT22;65003;49.518;11.280;2022-12-18T13:13:47;1.30;65.10
76211;DHT22;65003;49.518;11.280;2022-12-18T13:16:05;1.30;65.00
76211;DHT22;65003;49.518;11.280;2022-12-18T13:18:31;1.20;65.20
76211;DHT22;65003;49.518;11.280;2022-12-18T13:21:14;1.10;65.10
76211;DHT22;65003;49.518;11.280;2022-12-18T13:23:35;1.10;65.60
76211;DHT22;65003;49.518;11.280;2022-12-18T13:26:28;1.10;65.70
76211;DHT22;65003;49.518;11.280;2022-12-18T13:28:51;1.10;65.70
76211;DHT22;65003;49.518;11.280;2022-12-18T13:36:29;0.90;66.60
76211;DHT22;65003;49.518;11.280;2022-12-18T13:39:09;0.70;67.10
76211;DHT22;65003;49.518;11.280;2022-12-18T13:41:33;0.60;67.60
76211;DHT22;65003;49.518;11.280;2022-12-18T13:46:43;0.30;67.90
76211;DHT22;65003;49.518;11.280;2022-12-18T13:49:21;0.20;68.00
76211;DHT22;65003;49.518;11.280;2022-12-18T13:51:48;0.00;68.90
76211;DHT22;65003;49.518;11.280;2022-12-18T13:54:27;-0.10;69.50
76211;DHT22;65003;49.518;11.280;2022-12-18T13:56:51;-0.20;69.80
76211;DHT22;65003;49.518;11.280;2022-12-18T13:59:20;-0.40;70.60
76211;DHT22;65003;49.518;11.280;2022-12-18T14:01:49;-0.50;71.00
76211;DHT22;65003;49.518;11.280;2022-12-18T14:04:19;-0.50;71.00
76211;DHT22;65003;49.518;11.280;2022-12-18T14:06:46;-0.50;71.10
76211;DHT22;65003;49.518;11.280;2022-12-18T14:09:14;-0.50;71.20
76211;DHT22;65003;49.518;11.280;2022-12-18T14:11:41;-0.60;71.30
76211;DHT22;65003;49.518;11.280;2022-12-18T14:14:07;-0.60;71.70
76211;DHT22;65003;49.518;11.280;2022-12-18T14:16:34;-0.70;71.90
76211;DHT22;65003;49.518;11.280;2022-12-18T14:19:01;-0.80;72.00
76211;DHT22;65003;49.518;11.280;2022-12-18T14:21:28;-0.90;73.20
76211;DHT22;65003;49.518;11.280;2022-12-18T14:24:04;-1.00;73.00
76211;DHT22;65003;49.518;11.280;2022-12-18T14:26:31;-1.20;73.50
76211;DHT22;65003;49.518;11.280;2022-12-18T14:29:00;-1.30;73.90
76211;DHT22;65003;49.518;11.280;2022-12-18T14:31:26;-1.40;74.50
76211;DHT22;65003;49.518;11.280;2022-12-18T14:33:53;-1.50;74.90
76211;DHT22;65003;49.518;11.280;2022-12-18T14:36:21;-1.50;75.10
76211;DHT22;65003;49.518;11.280;2022-12-18T14:38:48;-1.60;75.30
76211;DHT22;65003;49.518;11.280;2022-12-18T14:41:15;-1.70;75.70
76211;DHT22;65003;49.518;11.280;2022-12-18T14:43:42;-1.70;76.00
76211;DHT22;65003;49.518;11.280;2022-12-18T14:48:48;-2.00;76.70
76211;DHT22;65003;49.518;11.280;2022-12-18T14:51:17;-2.00;77.00
76211;DHT22;65003;49.518;11.280;2022-12-18T14:53:43;-2.10;77.30
76211;DHT22;65003;49.518;11.280;2022-12-18T14:56:14;-2.10;77.50
76211;DHT22;65003;49.518;11.280;2022-12-18T14:58:44;-2.00;77.40
76211;DHT22;65003;49.518;11.280;2022-12-18T15:01:06;-2.10;77.10
76211;DHT22;65003;49.518;11.280;2022-12-18T15:03:33;-2.10;77.20
76211;DHT22;65003;49.518;11.280;2022-12-18T15:06:14;-2.10;77.10
76211;DHT22;65003;49.518;11.280;2022-12-18T15:08:36;-2.20;77.40
76211;DHT22;65003;49.518;11.280;2022-12-18T15:11:03;-2.30;77.60
76211;DHT22;65003;49.518;11.280;2022-12-18T15:13:29;-2.30;77.90
76211;DHT22;65003;49.518;11.280;2022-12-18T15:15:57;-2.40;78.00
76211;DHT22;65003;49.518;11.280;2022-12-18T15:18:27;-2.40;78.00
76211;DHT22;65003;49.518;11.280;2022-12-18T15:20:52;-2.40;79.10
76211;DHT22;65003;49.518;11.280;2022-12-18T15:23:19;-2.40;78.30
76211;DHT22;65003;49.518;11.280;2022-12-18T15:25:44;-2.50;78.40
76211;DHT22;65003;49.518;11.280;2022-12-18T15:28:16;-2.50;78.50
76211;DHT22;65003;49.518;11.280;2022-12-18T15:30:57;-2.50;78.20
76211;DHT22;65003;49.518;11.280;2022-12-18T15:33:17;-2.40;78.10
76211;DHT22;65003;49.518;11.280;2022-12-18T15:35:42;-2.50;78.30
76211;DHT22;65003;49.518;11.280;2022-12-18T15:38:09;-2.50;78.20
76211;DHT22;65003;49.518;11.280;2022-12-18T15:40:35;-2.50;78.30
76211;DHT22;65003;49.518;11.280;2022-12-18T15:43:04;-2.50;78.60
76211;DHT22;65003;49.518;11.280;2022-12-18T15:45:34;-2.60;78.70
76211;DHT22;65003;49.518;11.280;2022-12-18T15:48:01;-2.70;79.10
76211;DHT22;65003;49.518;11.280;2022-12-18T15:50:28;-2.70;79.10
76211;DHT22;65003;49.518;11.280;2022-12-18T15:52:55;-2.70;79.30
76211;DHT22;65003;49.518;11.280;2022-12-18T15:55:22;-2.70;79.40
76211;DHT22;65003;49.518;11.280;2022-12-18T15:57:53;-2.60;79.00
76211;DHT22;65003;49.518;11.280;2022-12-18T16:00:21;-2.70;79.20
76211;DHT22;65003;49.518;11.280;2022-12-18T16:02:48;-2.70;79.50
76211;DHT22;65003;49.518;11.280;2022-12-18T16:05:20;-2.70;79.70